Time;durP1;ratioP1;P1;durP2;ratioP2;P2;SDS_P1;SDS_P2;PMS_P1;PMS_P2;Temp;Humidity;BMP_temperature;BMP_pressure;BME280_temperature;BME280_humidity;BME280_pressure;Samples;Min_cycle;Max_cycle;Signal;HPM_P1;HPM_P2
2021/10/09 00:00:32;;;;;;;11.33;8.07;;;12.00;99.90;;;;;;5111738;28;20774;-75
2021/10/09 00:02:59;;;;;;;15.23;8.13;;;12.00;99.90;;;;;;5112447;28;20207;-75
2021/10/09 00:05:25;;;;;;;12.07;7.80;;;12.00;99.90;;;;;;5112352;28;20613;-73
2021/10/09 00:07:52;;;;;;;11.63;7.40;;;11.90;99.90;;;;;;5111938;28;20214;-74
2021/10/09 00:10:25;;;;;;;12.70;7.63;;;11.90;99.90;;;;;;5111215;28;20210;-74
2021/10/09 00:12:52;;;;;;;11.00;8.30;;;11.90;99.90;;;;;;5110766;28;20206;-74
2021/10/09 00:15:20;;;;;;;16.60;8.97;;;11.90;99.90;;;;;;5111773;28;20206;-74
2021/10/09 00:17:47;;;;;;;17.10;8.03;;;11.80;99.90;;;;;;5111963;28;20205;-73
2021/10/09 00:20:14;;;;;;;13.83;7.93;;;11.80;99.90;;;;;;5111159;28;20226;-72
2021/10/09 00:22:40;;;;;;;12.97;7.97;;;11.80;99.90;;;;;;5111378;28;20881;-72
2021/10/09 00:25:08;;;;;;;11.97;8.40;;;11.70;99.90;;;;;;5111438;28;20263;-73
2021/10/09 00:27:35;;;;;;;12.97;8.53;;;11.70;99.90;;;;;;5111625;27;20263;-72
2021/10/09 00:30:03;;;;;;;10.30;8.43;;;11.70;99.90;;;;;;5111240;28;20273;-72
2021/10/09 00:32:31;;;;;;;15.73;7.67;;;11.70;99.90;;;;;;5111549;28;20263;-73
2021/10/09 00:34:57;;;;;;;10.97;7.70;;;11.60;99.90;;;;;;5111571;28;20236;-72
2021/10/09 00:37:24;;;;;;;10.83;7.40;;;11.60;99.90;;;;;;5110883;28;20245;-73
2021/10/09 00:39:50;;;;;;;12.20;8.23;;;11.60;99.90;;;;;;5111352;28;20286;-73
2021/10/09 00:42:17;;;;;;;12.53;8.17;;;11.60;99.90;;;;;;5119153;27;20631;-72
2021/10/09 00:44:44;;;;;;;15.33;7.97;;;11.50;99.90;;;;;;5131851;27;20202;-73
2021/10/09 00:47:10;;;;;;;13.40;7.67;;;11.50;99.90;;;;;;5131179;27;20675;-72
2021/10/09 00:49:38;;;;;;;11.93;7.97;;;11.40;99.90;;;;;;5131480;27;20252;-72
2021/10/09 00:52:06;;;;;;;9.73;7.93;;;11.40;99.90;;;;;;5131528;27;20259;-72
2021/10/09 00:54:36;;;;;;;15.90;7.77;;;11.40;99.90;;;;;;5131735;27;20205;-74
2021/10/09 00:57:03;;;;;;;10.43;8.33;;;11.30;99.90;;;;;;5131064;27;20229;-74
2021/10/09 00:59:30;;;;;;;10.90;7.40;;;11.30;99.90;;;;;;5130993;27;20231;-74
2021/10/09 01:02:01;;;;;;;10.03;8.03;;;11.30;99.90;;;;;;5131192;27;20338;-74
2021/10/09 01:04:28;;;;;;;17.33;8.40;;;11.30;99.90;;;;;;5131207;27;20246;-73
2021/10/09 01:06:56;;;;;;;14.30;7.60;;;11.30;99.90;;;;;;5131418;27;20271;-74
2021/10/09 01:09:23;;;;;;;11.73;8.00;;;11.20;99.90;;;;;;5131107;27;20278;-73
2021/10/09 01:11:50;;;;;;;10.70;8.03;;;11.20;99.90;;;;;;5121643;27;20198;-74
2021/10/09 01:14:16;;;;;;;10.30;7.47;;;11.20;99.90;;;;;;5102836;28;20218;-74
2021/10/09 01:16:43;;;;;;;12.80;7.70;;;11.20;99.90;;;;;;5090216;28;20237;-74
2021/10/09 01:19:10;;;;;;;11.00;7.73;;;11.20;99.90;;;;;;5090041;28;20342;-74
2021/10/09 01:21:43;;;;;;;12.40;7.60;;;11.20;99.90;;;;;;5090005;28;20912;-74
2021/10/09 01:24:10;;;;;;;12.60;8.10;;;11.10;99.90;;;;;;5090291;28;20206;-73
2021/10/09 01:26:37;;;;;;;12.03;8.03;;;11.10;99.90;;;;;;5090457;28;20801;-73
2021/10/09 01:29:06;;;;;;;9.40;7.70;;;11.10;99.90;;;;;;5089616;28;20284;-73
2021/10/09 01:31:34;;;;;;;11.20;7.57;;;11.00;99.90;;;;;;5090046;28;20252;-74
2021/10/09 01:34:01;;;;;;;16.13;8.63;;;11.00;99.90;;;;;;5090228;28;20601;-73
2021/10/09 01:36:30;;;;;;;9.57;7.63;;;11.00;99.90;;;;;;5089961;28;20230;-73
2021/10/09 01:38:58;;;;;;;12.83;8.43;;;11.00;99.90;;;;;;5089532;28;20570;-72
2021/10/09 01:41:25;;;;;;;15.07;8.10;;;10.90;99.90;;;;;;5091853;27;20331;-72
2021/10/09 01:43:51;;;;;;;14.10;8.43;;;10.90;99.90;;;;;;5130517;27;20205;-73
2021/10/09 01:46:18;;;;;;;10.37;7.70;;;10.90;99.90;;;;;;5130310;27;20672;-73
2021/10/09 01:48:45;;;;;;;14.73;8.03;;;10.90;99.90;;;;;;5129871;27;20225;-73
2021/10/09 01:51:13;;;;;;;13.53;8.53;;;10.90;99.90;;;;;;5130563;27;20205;-73
2021/10/09 01:53:41;;;;;;;13.40;7.97;;;10.80;99.90;;;;;;5130761;27;20301;-74
2021/10/09 01:56:09;;;;;;;10.10;8.10;;;10.80;99.90;;;;;;5130555;27;20208;-73
2021/10/09 01:58:36;;;;;;;14.73;8.60;;;10.80;99.90;;;;;;5130298;27;20274;-73
2021/10/09 02:01:04;;;;;;;11.20;7.73;;;10.80;99.90;;;;;;5129979;27;20240;-73
2021/10/09 02:03:30;;;;;;;19.03;8.90;;;10.70;99.90;;;;;;5130016;27;20241;-73
2021/10/09 02:05:57;;;;;;;11.33;7.77;;;10.70;99.90;;;;;;5130591;27;20205;-73
2021/10/09 02:08:24;;;;;;;10.60;8.63;;;10.70;99.90;;;;;;5130310;27;20213;-73
2021/10/09 02:10:54;;;;;;;16.33;8.10;;;10.70;99.90;;;;;;5130368;27;20254;-73
2021/10/09 02:13:26;;;;;;;10.87;7.77;;;10.70;99.90;;;;;;5112901;27;20264;-73
2021/10/09 02:15:57;;;;;;;13.43;8.60;;;10.60;99.90;;;;;;5109839;28;20201;-73
2021/10/09 02:18:39;;;;;;;15.20;9.40;;;10.60;99.90;;;;;;5109447;28;20792;-73
2021/10/09 02:24:20;;;;;;;15.73;8.57;;;10.60;99.90;;;;;;5109323;28;20211;-73
2021/10/09 02:26:47;;;;;;;12.60;7.63;;;10.60;99.90;;;;;;5109337;28;20210;-74
2021/10/09 02:29:15;;;;;;;12.10;8.47;;;10.60;99.90;;;;;;5109106;28;20247;-73
2021/10/09 02:31:42;;;;;;;11.70;8.07;;;10.50;99.90;;;;;;5109604;28;20249;-74
2021/10/09 02:34:09;;;;;;;14.90;8.97;;;10.50;99.90;;;;;;5109219;28;20210;-73
2021/10/09 02:36:35;;;;;;;17.23;9.07;;;10.50;99.90;;;;;;5108967;28;20764;-73
2021/10/09 02:39:02;;;;;;;16.20;8.80;;;10.50;99.90;;;;;;5109522;28;20242;-73
2021/10/09 02:41:29;;;;;;;14.30;8.43;;;10.50;99.90;;;;;;5111306;28;20345;-73
2021/10/09 02:43:56;;;;;;;15.23;8.83;;;10.40;99.90;;;;;;5130019;27;20254;-73
2021/10/09 02:46:24;;;;;;;12.33;8.60;;;10.40;99.90;;;;;;5129369;27;20615;-73
2021/10/09 02:48:50;;;;;;;12.43;8.00;;;10.40;99.90;;;;;;5129445;27;20726;-74
2021/10/09 02:51:17;;;;;;;14.73;8.47;;;10.40;99.90;;;;;;5129249;27;20201;-74
2021/10/09 02:53:44;;;;;;;12.90;8.50;;;10.40;99.90;;;;;;5129207;27;20381;-73
2021/10/09 02:56:10;;;;;;;14.10;8.30;;;10.40;99.90;;;;;;5129057;27;20233;-74
2021/10/09 02:58:37;;;;;;;11.63;8.30;;;10.30;99.90;;;;;;5128953;27;20198;-73
2021/10/09 03:01:04;;;;;;;13.03;8.77;;;10.30;99.90;;;;;;5128800;27;20607;-75
2021/10/09 03:03:32;;;;;;;14.43;8.83;;;10.20;99.90;;;;;;5129368;28;20250;-75
2021/10/09 03:05:58;;;;;;;12.00;7.73;;;10.20;99.90;;;;;;5129444;27;20732;-75
2021/10/09 03:08:25;;;;;;;12.40;8.70;;;10.20;99.90;;;;;;5129142;27;20205;-75
2021/10/09 03:10:52;;;;;;;13.37;8.50;;;10.20;99.90;;;;;;5129147;28;20233;-75
2021/10/09 03:13:18;;;;;;;18.27;8.87;;;10.10;99.90;;;;;;5128862;28;20968;-74
2021/10/09 03:15:45;;;;;;;15.93;8.17;;;10.10;99.90;;;;;;5129222;28;20613;-74
2021/10/09 03:18:11;;;;;;;12.33;8.07;;;10.00;99.90;;;;;;5128990;27;20225;-74
2021/10/09 03:20:39;;;;;;;10.50;8.47;;;10.10;99.90;;;;;;5129014;28;20261;-73
2021/10/09 03:23:06;;;;;;;13.90;9.27;;;10.10;99.90;;;;;;5129219;27;20237;-73
2021/10/09 03:25:33;;;;;;;13.20;9.33;;;10.10;99.90;;;;;;5129074;27;20263;-73
2021/10/09 03:27:59;;;;;;;15.00;8.27;;;10.10;99.90;;;;;;5128877;27;20197;-73
2021/10/09 03:30:26;;;;;;;11.53;8.13;;;10.00;99.90;;;;;;5128821;28;20221;-73
2021/10/09 03:32:53;;;;;;;16.70;8.67;;;10.00;99.90;;;;;;5128919;27;20237;-73
2021/10/09 03:35:19;;;;;;;12.60;8.27;;;10.00;99.90;;;;;;5128739;28;20657;-73
2021/10/09 03:37:47;;;;;;;15.47;8.50;;;10.00;99.90;;;;;;5128935;27;20201;-73
2021/10/09 03:40:16;;;;;;;14.83;8.43;;;10.00;99.90;;;;;;5128971;28;20296;-73
2021/10/09 03:42:46;;;;;;;13.43;8.53;;;10.00;99.90;;;;;;5128572;28;20655;-73
2021/10/09 03:45:18;;;;;;;16.73;8.57;;;9.90;99.90;;;;;;5129380;28;20239;-75
2021/10/09 03:47:54;;;;;;;12.23;8.73;;;9.90;99.90;;;;;;5129375;28;20193;-75
2021/10/09 03:50:34;;;;;;;20.47;8.33;;;9.90;99.90;;;;;;5128724;28;20743;-75
2021/10/09 03:53:01;;;;;;;14.87;7.50;;;9.90;99.90;;;;;;5129207;28;20190;-73
2021/10/09 03:55:28;;;;;;;16.87;8.53;;;9.80;99.90;;;;;;5128778;28;20210;-73
2021/10/09 03:57:55;;;;;;;12.40;8.73;;;9.80;99.90;;;;;;5128698;28;20222;-74
2021/10/09 04:00:22;;;;;;;11.30;8.10;;;9.80;99.90;;;;;;5128423;28;20265;-73
2021/10/09 04:02:48;;;;;;;11.73;8.17;;;9.80;99.90;;;;;;5128665;28;20297;-72
2021/10/09 04:05:16;;;;;;;11.03;8.60;;;9.80;99.90;;;;;;5128479;27;20244;-72
2021/10/09 04:07:43;;;;;;;12.33;8.77;;;9.80;99.90;;;;;;5128585;27;20233;-72
2021/10/09 04:10:11;;;;;;;14.60;9.10;;;9.80;99.90;;;;;;5128642;27;20268;-72
2021/10/09 04:12:38;;;;;;;14.17;8.63;;;9.80;99.90;;;;;;5131316;27;20205;-73
2021/10/09 04:15:06;;;;;;;12.70;8.63;;;9.80;99.90;;;;;;5132394;27;20212;-73
2021/10/09 04:17:32;;;;;;;10.83;8.27;;;9.80;99.90;;;;;;5132137;27;20564;-73
2021/10/09 04:19:59;;;;;;;11.40;8.20;;;9.70;99.90;;;;;;5132198;27;20225;-72
2021/10/09 04:22:25;;;;;;;15.90;8.47;;;9.70;99.90;;;;;;5132159;27;20201;-72
2021/10/09 04:24:52;;;;;;;15.93;8.50;;;9.70;99.90;;;;;;5132102;27;20242;-72
2021/10/09 04:27:20;;;;;;;14.67;9.43;;;9.70;99.90;;;;;;5131778;27;20285;-72
2021/10/09 04:29:47;;;;;;;13.73;8.57;;;9.70;99.90;;;;;;5131817;27;20221;-72
2021/10/09 04:32:13;;;;;;;11.40;8.43;;;9.70;99.90;;;;;;5131791;27;20262;-72
2021/10/09 04:34:40;;;;;;;17.20;8.47;;;9.70;99.90;;;;;;5131803;27;21073;-72
2021/10/09 04:37:07;;;;;;;11.10;8.50;;;9.60;99.90;;;;;;5131987;27;20236;-72
2021/10/09 04:39:33;;;;;;;11.43;8.60;;;9.70;99.90;;;;;;5131846;27;20198;-72
2021/10/09 04:42:02;;;;;;;10.77;8.63;;;9.70;99.90;;;;;;5131739;27;20251;-74
2021/10/09 04:44:30;;;;;;;9.70;7.90;;;9.70;99.90;;;;;;5131463;27;20205;-74
2021/10/09 04:46:56;;;;;;;12.53;8.63;;;9.60;99.90;;;;;;5131440;27;20811;-74
2021/10/09 04:49:23;;;;;;;10.57;8.53;;;9.60;99.90;;;;;;5131438;27;20677;-74
2021/10/09 04:51:49;;;;;;;10.50;8.37;;;9.60;99.90;;;;;;5131870;27;20205;-74
2021/10/09 04:54:16;;;;;;;12.37;8.07;;;9.60;99.90;;;;;;5131401;27;20724;-74
2021/10/09 04:56:43;;;;;;;14.63;8.17;;;9.60;99.90;;;;;;5130977;27;21073;-73
2021/10/09 04:59:09;;;;;;;14.90;8.43;;;9.60;99.90;;;;;;5131071;27;20282;-72
2021/10/09 05:01:37;;;;;;;14.20;8.50;;;9.60;99.90;;;;;;5131249;27;20190;-72
2021/10/09 05:04:04;;;;;;;14.67;9.63;;;9.50;99.90;;;;;;5130955;27;20257;-72
2021/10/09 05:06:31;;;;;;;13.40;8.53;;;9.50;99.90;;;;;;5131180;27;20233;-72
2021/10/09 05:08:58;;;;;;;12.00;8.80;;;9.50;99.90;;;;;;5131311;27;20201;-72
2021/10/09 05:11:24;;;;;;;14.77;8.93;;;9.50;99.90;;;;;;5131137;27;20229;-72
2021/10/09 05:13:51;;;;;;;13.43;8.47;;;9.50;99.90;;;;;;5130910;27;20237;-73
2021/10/09 05:16:17;;;;;;;14.57;9.50;;;9.40;99.90;;;;;;5130989;27;20653;-72
2021/10/09 05:18:45;;;;;;;11.23;8.73;;;9.40;99.90;;;;;;5130873;27;20829;-73
2021/10/09 05:21:12;;;;;;;15.63;9.00;;;9.40;99.90;;;;;;5131202;27;20213;-73
2021/10/09 05:23:39;;;;;;;14.30;9.23;;;9.20;99.90;;;;;;5130685;27;20213;-72
2021/10/09 05:26:06;;;;;;;12.67;8.43;;;9.10;99.90;;;;;;5130576;27;20728;-73
2021/10/09 05:28:40;;;;;;;11.93;8.20;;;9.10;99.90;;;;;;5131040;27;20213;-73
2021/10/09 05:31:08;;;;;;;15.77;8.83;;;9.00;99.90;;;;;;5131118;27;20218;-73
2021/10/09 05:33:39;;;;;;;12.00;8.77;;;9.10;99.90;;;;;;5130371;27;20209;-73
2021/10/09 05:36:07;;;;;;;16.40;9.90;;;9.20;99.90;;;;;;5130470;27;20443;-72
2021/10/09 05:38:35;;;;;;;13.27;8.53;;;9.20;99.90;;;;;;5130405;27;20201;-74
2021/10/09 05:41:01;;;;;;;12.17;8.47;;;9.20;99.90;;;;;;5125902;27;20201;-73
2021/10/09 05:43:30;;;;;;;13.17;8.37;;;9.20;99.90;;;;;;5121281;27;20239;-73
2021/10/09 05:45:56;;;;;;;15.77;8.87;;;9.30;99.90;;;;;;5130137;27;20969;-73
2021/10/09 05:48:23;;;;;;;16.27;8.70;;;9.30;99.90;;;;;;5130244;27;20607;-73
2021/10/09 05:50:55;;;;;;;14.03;8.53;;;9.30;99.90;;;;;;5130356;27;20270;-73
2021/10/09 05:56:26;;;;;;;11.67;8.57;;;9.40;99.90;;;;;;5066050;28;20223;-73
2021/10/09 05:59:00;;;;;;;15.57;8.70;;;9.20;99.90;;;;;;5117461;27;20220;-72
2021/10/09 06:45:46;;;;;;;13.37;7.80;;;9.60;99.90;;;;;;5079506;28;20228;-71
2021/10/09 06:48:29;;;;;;;11.10;8.13;;;9.70;99.90;;;;;;5099873;28;20821;-71
2021/10/09 06:59:25;;;;;;;12.73;8.27;;;9.80;99.90;;;;;;5085646;28;20222;-71
2021/10/09 06:59:33;;;;;;;11.40;7.83;;;9.90;99.90;;;;;;5089804;28;20253;-71
2021/10/09 07:01:59;;;;;;;12.63;8.07;;;9.90;99.90;;;;;;5095921;28;20927;-71
2021/10/09 07:04:26;;;;;;;12.47;8.37;;;10.00;99.90;;;;;;5098998;28;20213;-71
2021/10/09 07:06:55;;;;;;;10.80;7.80;;;10.00;99.90;;;;;;5101807;28;20664;-71
2021/10/09 07:09:21;;;;;;;12.87;8.30;;;10.10;99.90;;;;;;5094996;28;20205;-71
2021/10/09 07:11:48;;;;;;;9.30;7.50;;;10.20;99.90;;;;;;5098115;28;20667;-71
2021/10/09 07:14:15;;;;;;;9.80;8.10;;;10.20;99.90;;;;;;5093782;28;20287;-71
2021/10/09 07:16:43;;;;;;;11.30;7.03;;;10.30;99.90;;;;;;5093452;28;20556;-73
2021/10/09 07:19:09;;;;;;;13.97;7.97;;;10.30;99.90;;;;;;5093830;28;20667;-71
2021/10/09 07:21:36;;;;;;;12.17;7.83;;;10.40;99.90;;;;;;5094382;28;20206;-71
2021/10/09 07:24:03;;;;;;;15.10;8.37;;;10.50;99.90;;;;;;5088743;28;20224;-71
2021/10/09 07:26:29;;;;;;;10.23;7.33;;;10.60;99.90;;;;;;5095721;28;20352;-77
2021/10/09 07:28:56;;;;;;;8.50;7.33;;;10.70;99.90;;;;;;5104244;28;20206;-77
2021/10/09 07:31:23;;;;;;;11.43;7.23;;;10.80;99.90;;;;;;5094916;28;20249;-76
2021/10/09 07:33:51;;;;;;;14.30;8.03;;;10.90;99.90;;;;;;5096042;28;21101;-71
2021/10/09 07:36:17;;;;;;;9.97;7.80;;;11.00;99.90;;;;;;5090731;28;20768;-71
2021/10/09 07:38:45;;;;;;;11.50;7.10;;;11.10;99.90;;;;;;5096721;28;20203;-71
2021/10/09 07:41:12;;;;;;;9.83;8.03;;;11.20;99.90;;;;;;5091529;28;20619;-71
2021/10/09 07:43:38;;;;;;;15.00;8.17;;;11.20;99.90;;;;;;5095606;28;20236;-71
2021/10/09 07:46:05;;;;;;;15.37;7.00;;;11.30;99.90;;;;;;5096062;28;20401;-71
2021/10/09 07:48:32;;;;;;;8.57;7.30;;;11.40;99.90;;;;;;5089137;28;20207;-71
2021/10/09 07:51:00;;;;;;;10.83;6.90;;;11.40;99.90;;;;;;5089271;28;20230;-71
2021/10/09 07:53:26;;;;;;;10.63;7.43;;;11.50;99.90;;;;;;5089062;28;20207;-71
2021/10/09 07:55:53;;;;;;;10.93;7.27;;;11.60;99.90;;;;;;5088498;28;20631;-71
2021/10/09 07:58:20;;;;;;;8.87;6.97;;;11.60;99.90;;;;;;5088807;28;20279;-71
2021/10/09 08:00:46;;;;;;;12.93;7.47;;;11.70;99.90;;;;;;5088457;28;20242;-71
2021/10/09 08:03:13;;;;;;;9.17;7.13;;;11.80;99.90;;;;;;5088465;28;20291;-71
2021/10/09 08:05:39;;;;;;;9.43;6.83;;;11.80;99.90;;;;;;5087953;28;20207;-71
2021/10/09 08:08:07;;;;;;;9.00;6.70;;;11.80;99.90;;;;;;5088286;28;20295;-71
2021/10/09 08:10:34;;;;;;;10.07;7.10;;;12.00;99.90;;;;;;5088370;28;20226;-71
2021/10/09 08:13:01;;;;;;;12.20;7.47;;;12.00;99.90;;;;;;5088194;28;20214;-71
2021/10/09 08:15:27;;;;;;;14.23;7.37;;;12.10;99.90;;;;;;5087508;28;20374;-71
2021/10/09 08:17:54;;;;;;;10.33;6.67;;;12.10;99.90;;;;;;5088151;28;20234;-71
2021/10/09 08:20:23;;;;;;;9.73;6.83;;;12.20;99.90;;;;;;5087867;28;20295;-71
2021/10/09 08:22:58;;;;;;;13.30;7.17;;;12.30;99.90;;;;;;5088252;28;20214;-71
2021/10/09 08:25:53;;;;;;;8.13;6.63;;;12.40;99.90;;;;;;5088164;28;20229;-71
2021/10/09 08:36:35;;;;;;;9.87;6.70;;;12.70;99.10;;;;;;5088276;28;20190;-71
2021/10/09 08:39:03;;;;;;;8.30;6.83;;;12.70;99.30;;;;;;5088619;28;20207;-71
2021/10/09 08:41:31;;;;;;;8.80;6.57;;;12.80;99.10;;;;;;5087656;28;20206;-71
2021/10/09 08:43:58;;;;;;;8.70;6.20;;;12.90;99.30;;;;;;5087236;28;20288;-71
2021/10/09 08:46:24;;;;;;;11.30;7.53;;;12.90;99.10;;;;;;5087322;28;20237;-71
2021/10/09 08:48:52;;;;;;;9.60;6.30;;;13.00;98.90;;;;;;5087590;28;20237;-71
2021/10/09 08:51:22;;;;;;;8.90;6.60;;;13.00;99.20;;;;;;5087306;28;20717;-71
2021/10/09 08:53:50;;;;;;;8.87;6.13;;;13.10;99.40;;;;;;5087518;28;20259;-71
2021/10/09 08:56:31;;;;;;;9.07;6.13;;;13.20;98.80;;;;;;5087359;28;20230;-71
2021/10/09 08:59:14;;;;;;;9.47;6.07;;;13.30;99.40;;;;;;5086669;28;20229;-71
2021/10/09 09:01:58;;;;;;;6.93;5.80;;;13.40;98.90;;;;;;5087046;28;20557;-71
2021/10/09 09:04:56;;;;;;;10.03;6.67;;;13.50;98.80;;;;;;5087069;28;20210;-71
2021/10/09 09:07:43;;;;;;;11.70;6.93;;;13.60;99.50;;;;;;5087705;28;20194;-71
2021/10/09 09:27:11;;;;;;;7.93;5.17;;;14.30;97.20;;;;;;5086550;28;20650;-71
2021/10/09 09:32:36;;;;;;;5.53;5.03;;;14.40;96.20;;;;;;5106731;28;20244;-71
2021/10/09 09:35:19;;;;;;;8.10;4.93;;;14.40;96.90;;;;;;5106616;28;20298;-71
2021/10/09 09:40:41;;;;;;;8.33;4.93;;;14.60;96.20;;;;;;5104603;28;20282;-71
2021/10/09 09:43:09;;;;;;;6.87;4.53;;;14.70;96.30;;;;;;5105662;28;20210;-71
2021/10/09 09:45:39;;;;;;;5.73;4.63;;;14.80;95.70;;;;;;5106585;27;20210;-71
2021/10/09 09:48:07;;;;;;;8.00;4.60;;;14.80;95.40;;;;;;5106540;28;20202;-71
2021/10/09 09:50:35;;;;;;;7.40;4.63;;;14.80;96.10;;;;;;5106014;28;20264;-71
2021/10/09 09:53:03;;;;;;;7.30;4.30;;;14.90;94.90;;;;;;5106547;28;20610;-71
2021/10/09 09:55:30;;;;;;;5.03;4.27;;;15.00;95.60;;;;;;5106589;28;20235;-71
2021/10/09 09:58:00;;;;;;;7.67;4.67;;;15.10;95.40;;;;;;5106576;28;20254;-71
2021/10/09 10:00:29;;;;;;;6.60;4.57;;;15.20;95.50;;;;;;5105944;28;20679;-71
2021/10/09 10:02:58;;;;;;;7.83;5.07;;;15.30;95.70;;;;;;5106663;28;20319;-71
2021/10/09 10:05:28;;;;;;;6.80;4.13;;;15.30;95.20;;;;;;5106090;28;20726;-71
2021/10/09 10:08:04;;;;;;;6.70;4.37;;;15.50;94.00;;;;;;5106863;28;20197;-72
2021/10/09 10:10:31;;;;;;;7.23;3.90;;;15.50;93.30;;;;;;5105467;28;20656;-71
2021/10/09 10:12:59;;;;;;;4.67;4.27;;;15.60;93.90;;;;;;5105979;28;20667;-71
2021/10/09 10:15:29;;;;;;;5.03;4.23;;;15.70;94.30;;;;;;5105422;28;20649;-71
2021/10/09 10:17:57;;;;;;;6.90;4.50;;;15.70;94.10;;;;;;5106763;28;20232;-71
2021/10/09 10:20:25;;;;;;;8.23;4.40;;;15.80;94.40;;;;;;5106434;28;20575;-71
2021/10/09 10:22:59;;;;;;;6.70;4.50;;;15.80;93.40;;;;;;5105839;28;20267;-71
2021/10/09 10:25:29;;;;;;;5.00;4.30;;;15.90;93.80;;;;;;5106025;28;20193;-71
2021/10/09 10:28:00;;;;;;;5.30;4.40;;;15.90;94.10;;;;;;5106388;28;20275;-71
2021/10/09 10:30:30;;;;;;;4.80;4.40;;;16.00;94.30;;;;;;5105889;28;20198;-71
2021/10/09 10:33:40;;;;;;;11.27;4.57;;;16.10;94.60;;;;;;5105744;28;20238;-71
2021/10/09 10:36:11;;;;;;;4.40;3.87;;;16.20;93.80;;;;;;5106193;28;20679;-71
2021/10/09 10:38:50;;;;;;;4.73;4.27;;;16.30;93.30;;;;;;5105994;28;20252;-71
2021/10/09 10:41:21;;;;;;;5.20;4.53;;;16.30;92.70;;;;;;5106816;28;20202;-71
2021/10/09 10:43:51;;;;;;;4.63;3.87;;;16.40;92.90;;;;;;5088752;28;20192;-71
2021/10/09 10:46:45;;;;;;;4.70;4.30;;;16.50;92.60;;;;;;5086138;28;20565;-71
2021/10/09 10:49:16;;;;;;;6.67;4.47;;;16.50;92.40;;;;;;5081133;28;20264;-71
2021/10/09 10:51:56;;;;;;;5.23;4.43;;;16.60;91.90;;;;;;5085878;28;20229;-71
2021/10/09 10:54:36;;;;;;;5.00;4.50;;;16.70;92.20;;;;;;5084705;28;20625;-71
2021/10/09 10:57:21;;;;;;;4.77;4.20;;;16.70;92.40;;;;;;5085361;28;20293;-72
2021/10/09 10:59:56;;;;;;;4.50;4.20;;;16.80;91.90;;;;;;5085358;28;20326;-72
2021/10/09 11:02:25;;;;;;;4.83;4.33;;;16.90;92.30;;;;;;5085204;28;20280;-72
2021/10/09 11:04:54;;;;;;;5.93;4.60;;;17.00;92.00;;;;;;5083707;28;20207;-72
2021/10/09 11:07:26;;;;;;;6.37;4.27;;;17.10;92.60;;;;;;5085614;28;20256;-72
2021/10/09 11:09:53;;;;;;;5.70;5.17;;;17.10;92.20;;;;;;5085655;28;20201;-72
2021/10/09 11:12:23;;;;;;;5.80;4.53;;;17.30;92.40;;;;;;5085027;28;20262;-72
2021/10/09 11:14:50;;;;;;;5.07;4.50;;;17.40;91.90;;;;;;5085354;28;20206;-72
2021/10/09 11:17:17;;;;;;;4.77;4.13;;;17.40;91.40;;;;;;5084862;28;20700;-72
2021/10/09 11:19:46;;;;;;;5.93;4.63;;;17.40;91.30;;;;;;5085249;28;20232;-72
2021/10/09 11:22:13;;;;;;;7.33;4.63;;;17.50;92.10;;;;;;5089199;28;20203;-72
2021/10/09 11:24:44;;;;;;;4.77;4.30;;;17.60;92.30;;;;;;5088837;28;20241;-72
2021/10/09 11:27:11;;;;;;;5.37;4.23;;;17.70;92.00;;;;;;5089667;28;20198;-72
2021/10/09 11:29:37;;;;;;;6.40;5.17;;;17.90;92.80;;;;;;5089074;28;20210;-72
2021/10/09 11:32:06;;;;;;;6.67;5.10;;;18.10;92.90;;;;;;5088613;28;20601;-72
2021/10/09 11:34:47;;;;;;;6.80;5.10;;;18.20;92.50;;;;;;5088563;28;20223;-72
2021/10/09 11:37:13;;;;;;;7.87;4.83;;;18.30;92.20;;;;;;5088990;28;20199;-72
2021/10/09 11:39:50;;;;;;;6.33;4.77;;;18.40;92.10;;;;;;5088754;28;20762;-72
2021/10/09 11:42:21;;;;;;;5.33;4.80;;;18.40;91.50;;;;;;5088506;28;21077;-72
2021/10/09 11:45:02;;;;;;;7.50;4.43;;;18.50;91.60;;;;;;5088560;28;20386;-72
2021/10/09 11:53:28;;;;;;;5.50;5.00;;;18.60;92.50;;;;;;5088534;28;20464;-72
2021/10/09 11:56:00;;;;;;;5.10;4.17;;;18.80;91.90;;;;;;5088611;28;20259;-71
2021/10/09 11:58:27;;;;;;;4.50;3.93;;;19.00;90.80;;;;;;5088631;28;20236;-72
2021/10/09 12:00:53;;;;;;;4.17;3.73;;;19.00;90.60;;;;;;5087806;28;20600;-72
2021/10/09 12:03:38;;;;;;;4.73;3.77;;;19.00;90.00;;;;;;5088386;28;20280;-72
2021/10/09 12:06:10;;;;;;;7.67;4.23;;;19.20;90.70;;;;;;5089053;28;20203;-72
2021/10/09 12:08:51;;;;;;;4.13;3.50;;;19.30;90.10;;;;;;5091695;28;20662;-72
2021/10/09 12:11:25;;;;;;;4.13;3.47;;;19.30;89.00;;;;;;5100027;28;20605;-72
2021/10/09 12:13:54;;;;;;;5.20;3.73;;;19.40;90.10;;;;;;5096371;28;20189;-72
2021/10/09 12:16:29;;;;;;;6.63;4.30;;;19.50;87.80;;;;;;5095808;28;20219;-72
2021/10/09 12:18:57;;;;;;;4.10;3.80;;;19.50;87.50;;;;;;5099677;28;20550;-72
2021/10/09 12:21:25;;;;;;;7.82;4.07;;;19.50;87.90;;;;;;5105507;28;20228;-72
2021/10/09 12:23:53;;;;;;;6.67;4.30;;;19.60;89.00;;;;;;5108467;28;20667;-72
2021/10/09 12:26:21;;;;;;;6.07;4.32;;;19.70;90.20;;;;;;5108761;28;20225;-72
2021/10/09 12:29:13;;;;;;;4.90;4.03;;;19.80;89.80;;;;;;5108776;28;20212;-71
2021/10/09 12:31:44;;;;;;;6.03;4.00;;;19.80;88.30;;;;;;5108075;28;20222;-72
2021/10/09 12:34:30;;;;;;;5.30;3.83;;;19.90;87.80;;;;;;5109243;28;20268;-72
2021/10/09 12:37:22;;;;;;;4.55;3.83;;;20.00;87.10;;;;;;5109190;28;20198;-72
2021/10/09 12:40:06;;;;;;;4.40;3.90;;;20.00;86.60;;;;;;5109086;28;20198;-72
2021/10/09 12:42:32;;;;;;;5.63;3.75;;;20.00;86.90;;;;;;5108997;28;20210;-72
2021/10/09 12:45:01;;;;;;;3.20;3.00;;;20.20;87.50;;;;;;5108581;28;20233;-72
2021/10/09 12:47:28;;;;;;;4.63;3.80;;;20.20;86.50;;;;;;5108396;28;21055;-72
2021/10/09 12:49:54;;;;;;;5.43;3.63;;;20.20;86.50;;;;;;5108450;28;20214;-72
2021/10/09 12:52:21;;;;;;;7.85;3.72;;;20.40;85.90;;;;;;5107811;28;20772;-72
2021/10/09 12:54:47;;;;;;;5.30;3.78;;;20.50;86.50;;;;;;5108245;28;20328;-72
2021/10/09 12:57:14;;;;;;;4.47;3.40;;;20.50;86.10;;;;;;5108343;28;20236;-72
2021/10/09 12:59:41;;;;;;;3.95;3.55;;;20.60;86.20;;;;;;5107910;28;20234;-72
2021/10/09 13:02:09;;;;;;;4.43;3.80;;;20.70;85.70;;;;;;5108015;28;20242;-72
2021/10/09 13:04:37;;;;;;;5.32;3.70;;;20.70;85.10;;;;;;5108040;28;20207;-72
2021/10/09 13:07:04;;;;;;;4.68;3.67;;;20.80;85.70;;;;;;5107944;28;20251;-72
2021/10/09 13:09:31;;;;;;;3.72;3.42;;;20.80;85.10;;;;;;5107151;28;20245;-72
2021/10/09 13:11:59;;;;;;;5.50;3.83;;;20.80;82.80;;;;;;5107826;28;20768;-72
2021/10/09 13:14:25;;;;;;;4.28;3.47;;;20.80;83.00;;;;;;5108246;28;20775;-72
2021/10/09 13:16:52;;;;;;;5.15;3.20;;;20.90;84.80;;;;;;5108505;28;20298;-72
2021/10/09 13:19:20;;;;;;;3.63;3.30;;;21.00;84.30;;;;;;5108518;28;20202;-72
2021/10/09 13:21:47;;;;;;;6.40;3.05;;;21.10;84.00;;;;;;5108113;28;20271;-72
2021/10/09 13:24:13;;;;;;;7.22;3.83;;;21.20;82.80;;;;;;5108010;28;20358;-72
2021/10/09 13:26:40;;;;;;;3.47;3.17;;;21.20;83.40;;;;;;5107289;28;20242;-72
2021/10/09 13:29:07;;;;;;;4.03;3.50;;;21.10;81.50;;;;;;5104141;28;20225;-72
2021/10/09 13:31:34;;;;;;;4.40;3.38;;;21.20;82.10;;;;;;5094835;28;20203;-72
2021/10/09 13:34:01;;;;;;;3.63;3.33;;;21.10;80.80;;;;;;5095206;28;20269;-72
2021/10/09 13:36:29;;;;;;;4.45;3.47;;;21.10;80.90;;;;;;5096956;28;20206;-72
2021/10/09 13:38:56;;;;;;;3.88;3.40;;;21.10;80.80;;;;;;5095159;28;20230;-72
2021/10/09 13:41:23;;;;;;;5.38;3.60;;;21.20;81.40;;;;;;5107318;28;20254;-72
2021/10/09 13:43:49;;;;;;;4.95;3.60;;;21.10;80.20;;;;;;5107319;28;20225;-72
2021/10/09 13:46:19;;;;;;;3.90;3.38;;;21.20;80.80;;;;;;5107422;28;20251;-72
2021/10/09 13:48:46;;;;;;;4.80;3.00;;;21.30;81.70;;;;;;5107352;28;20210;-72
2021/10/09 13:51:13;;;;;;;4.25;3.20;;;21.30;81.40;;;;;;5107362;27;20229;-72
2021/10/09 13:53:42;;;;;;;6.88;2.90;;;21.30;79.30;;;;;;5106962;28;20234;-72
2021/10/09 13:56:08;;;;;;;3.30;3.00;;;21.30;78.50;;;;;;5107269;28;20275;-72
2021/10/09 13:58:35;;;;;;;3.92;3.08;;;21.30;78.70;;;;;;5106088;28;20327;-72
2021/10/09 14:01:03;;;;;;;3.15;2.95;;;21.20;78.40;;;;;;5107630;28;20265;-72
2021/10/09 14:03:31;;;;;;;2.75;2.60;;;21.20;77.50;;;;;;5107310;28;20251;-72
2021/10/09 14:05:59;;;;;;;3.35;3.05;;;21.10;77.90;;;;;;5106938;28;20210;-72
2021/10/09 14:08:26;;;;;;;4.45;3.30;;;21.00;77.40;;;;;;5104132;28;20267;-72
2021/10/09 14:10:55;;;;;;;3.67;2.92;;;21.00;78.40;;;;;;5086074;28;20288;-72
2021/10/09 14:13:24;;;;;;;3.15;2.85;;;21.00;77.40;;;;;;5085537;28;20239;-72
2021/10/09 14:15:51;;;;;;;3.35;2.92;;;20.90;77.90;;;;;;5085672;28;20788;-72
2021/10/09 14:18:18;;;;;;;4.00;3.70;;;20.90;78.00;;;;;;5086092;28;20764;-72
2021/10/09 14:20:47;;;;;;;3.63;3.08;;;21.10;80.10;;;;;;5085906;28;20213;-72
2021/10/09 14:23:14;;;;;;;3.90;3.20;;;21.00;78.10;;;;;;5085863;28;20206;-72
2021/10/09 14:25:40;;;;;;;4.57;3.55;;;21.00;78.30;;;;;;5085829;28;20214;-72